Kilsyth, West Virginia
Current Conditions -  °F | °C
As of 11:12 PM on Thursday 27 Nov 2014 (Local Time) from KBKW Reporting Station
Light Snow Light Snow  
Wind Chill: 17°   Ceiling: 1900
Heat Index: 25°   Visibility: 4mi
Dew Point: 21°   Wind: 7mph
Humidity: 85%   Direction: 300°WNW
Pressure: 30.23"   Gusts: NA
Location:  37.89°N, 81.18°W
Report Text: KBKW 280412Z AUTO 30006KT 4SM -SN BR SCT010 BKN019 OVC044 M04/M06 A3023 RMK AO2 P0000 T10391061
Loading
Personal Weather Stations






























Interactive Weather Map New forecast layout! Learn more

10-Day Weather Forecast

Advertisements
Track Severe Weather on mobile